createdAt,value
2023-10-03T00:01:43.148Z,10.40
2023-10-03T00:04:10.524Z,8.43
2023-10-03T00:06:39.282Z,7.45
2023-10-03T00:09:06.665Z,8.00
2023-10-03T00:11:33.914Z,7.07
2023-10-03T00:14:01.290Z,8.45
2023-10-03T00:16:28.559Z,8.40
2023-10-03T00:18:55.775Z,8.40
2023-10-03T00:21:22.993Z,8.18
2023-10-03T00:23:51.662Z,7.70
2023-10-03T00:26:19.069Z,8.82
2023-10-03T00:28:46.766Z,8.40
2023-10-03T00:31:14.078Z,8.73
2023-10-03T00:33:41.753Z,9.77
2023-10-03T00:36:15.541Z,8.38
2023-10-03T00:38:43.037Z,8.27
2023-10-03T00:41:12.525Z,7.13
2023-10-03T00:43:52.478Z,7.38
2023-10-03T00:46:19.802Z,9.13
2023-10-03T00:48:47.102Z,8.75
2023-10-03T00:51:15.227Z,8.63
2023-10-03T00:53:42.845Z,7.30
2023-10-03T00:56:10.219Z,6.88
2023-10-03T00:58:38.936Z,10.30
2023-10-03T01:01:06.204Z,8.60
2023-10-03T01:03:35.194Z,8.40
2023-10-03T01:06:04.087Z,8.10
2023-10-03T01:08:31.331Z,7.32
2023-10-03T01:10:58.616Z,7.95
2023-10-03T01:13:25.903Z,8.52
2023-10-03T01:15:54.597Z,7.95
2023-10-03T01:18:22.020Z,9.00
2023-10-03T01:20:49.640Z,8.80
2023-10-03T01:23:18.379Z,8.07
2023-10-03T01:25:45.651Z,9.20
2023-10-03T01:28:14.252Z,10.52
2023-10-03T01:30:42.032Z,9.27
2023-10-03T01:33:11.377Z,8.23
2023-10-03T01:35:39.323Z,9.45
2023-10-03T01:38:06.667Z,8.95
2023-10-03T01:40:35.799Z,10.20
2023-10-03T01:43:03.380Z,8.50
2023-10-03T01:45:30.966Z,8.20
2023-10-03T01:47:58.222Z,9.07
2023-10-03T01:50:26.692Z,9.00
2023-10-03T01:52:54.140Z,8.48
2023-10-03T01:55:21.661Z,8.30
2023-10-03T01:57:50.335Z,9.35
2023-10-03T02:00:18.012Z,8.68
2023-10-03T02:02:45.436Z,7.93
2023-10-03T02:05:12.811Z,9.02
2023-10-03T02:07:40.843Z,9.60
2023-10-03T02:10:08.766Z,7.43
2023-10-03T02:12:35.992Z,8.57
2023-10-03T02:15:05.126Z,10.57
2023-10-03T02:17:32.452Z,8.80
2023-10-03T02:19:59.803Z,7.88
2023-10-03T02:22:27.044Z,9.13
2023-10-03T02:24:54.260Z,8.00
2023-10-03T02:27:21.520Z,8.15
2023-10-03T02:29:48.756Z,7.57
2023-10-03T02:32:17.382Z,9.63
2023-10-03T02:34:45.307Z,7.20
2023-10-03T02:37:12.528Z,8.63
2023-10-03T02:39:40.018Z,7.57
2023-10-03T02:42:07.892Z,7.38
2023-10-03T02:44:35.663Z,7.18
2023-10-03T02:47:03.313Z,6.82
2023-10-03T02:49:31.946Z,7.50
2023-10-03T02:51:59.327Z,8.15
2023-10-03T02:54:26.539Z,7.65
2023-10-03T02:56:53.978Z,7.50
2023-10-03T02:59:22.678Z,7.40
2023-10-03T03:01:50.129Z,8.23
2023-10-03T03:04:17.527Z,7.53
2023-10-03T03:06:46.436Z,7.55
2023-10-03T03:09:13.912Z,8.52
2023-10-03T03:11:43.818Z,8.60
2023-10-03T03:14:11.091Z,7.65
2023-10-03T03:16:38.310Z,6.90
2023-10-03T03:19:05.523Z,6.50
2023-10-03T03:21:32.764Z,6.88
2023-10-03T03:24:01.539Z,7.38
2023-10-03T03:26:29.273Z,7.60
2023-10-03T03:28:56.542Z,7.32
2023-10-03T03:31:24.107Z,8.68
2023-10-03T03:33:52.393Z,8.38
2023-10-03T03:36:20.541Z,7.70
2023-10-03T03:38:49.564Z,8.63
2023-10-03T03:41:18.393Z,8.60
2023-10-03T03:43:45.990Z,8.07
2023-10-03T03:46:13.257Z,7.97
2023-10-03T03:48:40.711Z,7.65
2023-10-03T03:51:08.266Z,6.13
2023-10-03T03:53:35.555Z,5.97
2023-10-03T03:56:03.236Z,6.13
2023-10-03T03:58:31.846Z,6.20
2023-10-03T04:00:59.201Z,6.15
2023-10-03T04:03:26.592Z,7.45
2023-10-03T04:05:53.899Z,8.65
2023-10-03T04:08:21.142Z,7.13
2023-10-03T04:10:48.464Z,6.63
2023-10-03T04:13:15.909Z,6.93
2023-10-03T04:15:44.604Z,6.20
2023-10-03T04:18:12.098Z,7.20
2023-10-03T04:20:39.410Z,7.28
2023-10-03T04:23:06.673Z,7.32
2023-10-03T04:25:34.214Z,7.13
2023-10-03T04:28:01.971Z,10.57
2023-10-03T04:30:29.222Z,7.45
2023-10-03T04:32:58.522Z,7.68
2023-10-03T04:35:29.260Z,7.05
2023-10-03T04:37:56.557Z,6.88
2023-10-03T04:40:25.161Z,6.38
2023-10-03T04:42:53.083Z,6.07
2023-10-03T04:45:20.843Z,7.05
2023-10-03T04:47:48.485Z,7.47
2023-10-03T04:50:17.358Z,6.28
2023-10-03T04:52:45.141Z,6.97
2023-10-03T04:55:12.365Z,6.13
2023-10-03T04:57:39.578Z,7.35
2023-10-03T05:00:09.894Z,6.78
2023-10-03T05:02:37.123Z,7.40
2023-10-03T05:05:04.943Z,8.30
2023-10-03T05:07:33.483Z,8.35
2023-10-03T05:10:00.750Z,7.70
2023-10-03T05:12:27.962Z,8.20
2023-10-03T05:14:55.233Z,8.02
2023-10-03T05:17:22.541Z,8.85
2023-10-03T05:19:49.841Z,7.60
2023-10-03T05:22:17.034Z,8.15
2023-10-03T05:24:45.620Z,8.50
2023-10-03T05:27:12.821Z,8.63
2023-10-03T05:29:40.036Z,9.60
2023-10-03T05:32:07.366Z,8.48
2023-10-03T05:34:34.586Z,8.63
2023-10-03T05:37:02.140Z,8.40
2023-10-03T05:39:29.419Z,8.82
2023-10-03T05:41:58.096Z,8.93
2023-10-03T05:44:25.407Z,9.20
2023-10-03T05:46:53.111Z,8.48
2023-10-03T05:49:20.350Z,9.55
2023-10-03T05:51:47.572Z,10.30
2023-10-03T05:54:14.804Z,7.82
2023-10-03T05:56:42.082Z,7.30
2023-10-03T05:59:10.705Z,7.82
2023-10-03T06:01:38.015Z,7.25
2023-10-03T06:04:06.125Z,6.95
2023-10-03T06:06:33.480Z,8.50
2023-10-03T06:09:00.946Z,8.48
2023-10-03T06:11:28.322Z,8.13
2023-10-03T06:13:55.555Z,8.77
2023-10-03T06:16:24.178Z,8.95
2023-10-03T06:18:51.574Z,8.70
2023-10-03T06:21:18.898Z,9.20
2023-10-03T06:23:46.207Z,9.88
2023-10-03T06:26:13.651Z,8.30
2023-10-03T06:28:40.840Z,7.10
2023-10-03T06:31:08.081Z,7.15
2023-10-03T06:33:36.775Z,7.47
2023-10-03T06:36:04.632Z,7.13
2023-10-03T06:38:32.025Z,7.55
2023-10-03T06:40:59.253Z,7.65
2023-10-03T06:43:26.530Z,7.22
2023-10-03T06:45:53.755Z,7.57
2023-10-03T06:48:21.053Z,8.23
2023-10-03T06:50:49.704Z,8.80
2023-10-03T06:53:16.992Z,9.18
2023-10-03T06:55:44.236Z,7.80
2023-10-03T06:58:11.497Z,8.02
2023-10-03T07:00:39.031Z,8.50
2023-10-03T07:03:06.518Z,8.68
2023-10-03T07:05:33.959Z,8.18
2023-10-03T07:08:02.590Z,9.00
2023-10-03T07:10:30.009Z,8.77
2023-10-03T07:12:57.560Z,9.40
2023-10-03T07:15:24.814Z,8.43
2023-10-03T07:17:52.117Z,8.10
2023-10-03T07:20:19.388Z,8.43
2023-10-03T07:22:46.674Z,8.80
2023-10-03T07:25:15.322Z,9.02
2023-10-03T07:27:42.645Z,9.35
2023-10-03T07:30:11.445Z,8.65
2023-10-03T07:32:38.763Z,9.45
2023-10-03T07:35:06.564Z,9.65
2023-10-03T07:37:34.946Z,8.77
2023-10-03T07:40:02.153Z,8.90
2023-10-03T07:42:31.622Z,9.75
2023-10-03T07:44:59.022Z,9.40
2023-10-03T07:47:26.429Z,8.95
2023-10-03T07:49:53.691Z,8.35
2023-10-03T07:52:20.898Z,9.18
2023-10-03T07:54:48.503Z,8.93
2023-10-03T07:57:15.750Z,9.63
2023-10-03T07:59:44.388Z,9.55
2023-10-03T08:02:11.828Z,10.32
2023-10-03T08:04:39.310Z,11.52
2023-10-03T08:07:06.697Z,10.70
2023-10-03T08:09:35.461Z,9.52
2023-10-03T08:12:03.317Z,13.27
2023-10-03T08:14:30.563Z,10.90
2023-10-03T08:16:59.206Z,10.48
2023-10-03T08:19:26.743Z,9.90
2023-10-03T08:21:55.361Z,9.77
2023-10-03T08:24:24.830Z,10.43
2023-10-03T08:26:52.596Z,9.63
2023-10-03T08:29:20.002Z,10.40
2023-10-03T08:31:47.281Z,10.65
2023-10-03T08:34:15.996Z,10.82
2023-10-03T08:36:43.274Z,12.15
2023-10-03T08:39:10.549Z,11.38
2023-10-03T08:41:45.316Z,10.60
2023-10-03T08:44:12.916Z,13.40
2023-10-03T08:46:45.834Z,15.70
2023-10-03T08:49:15.079Z,12.05
2023-10-03T08:51:43.716Z,11.55
2023-10-03T08:54:11.723Z,11.15
2023-10-03T08:56:40.007Z,10.43
2023-10-03T08:59:07.320Z,10.15
2023-10-03T09:01:35.978Z,10.90
2023-10-03T09:04:03.549Z,10.40
2023-10-03T09:06:30.951Z,11.00
2023-10-03T09:08:59.581Z,10.48
2023-10-03T09:11:26.813Z,10.38
2023-10-03T09:13:54.102Z,11.00
2023-10-03T09:16:21.382Z,10.75
2023-10-03T09:18:52.150Z,9.60
2023-10-03T09:21:19.606Z,10.02
2023-10-03T09:24:06.601Z,9.13
2023-10-03T09:26:41.528Z,9.65
2023-10-03T09:29:08.783Z,8.95
2023-10-03T09:31:36.042Z,9.43
2023-10-03T09:34:03.412Z,10.02
2023-10-03T09:36:31.402Z,10.13
2023-10-03T09:38:59.199Z,9.57
2023-10-03T09:41:29.440Z,9.23
2023-10-03T09:43:56.713Z,9.40
2023-10-03T09:46:25.690Z,10.13
2023-10-03T09:48:54.229Z,10.15
2023-10-03T09:51:26.345Z,10.10
2023-10-03T09:53:56.699Z,10.05
2023-10-03T09:56:24.202Z,9.85
2023-10-03T09:58:53.290Z,8.57
2023-10-03T10:01:20.670Z,7.88
2023-10-03T10:03:48.197Z,7.60
2023-10-03T10:06:27.443Z,7.45
2023-10-03T10:09:03.381Z,7.38
2023-10-03T10:11:30.909Z,7.93
2023-10-03T10:14:08.617Z,7.32
2023-10-03T10:16:36.123Z,7.75
2023-10-03T10:19:03.763Z,7.78
2023-10-03T10:21:32.969Z,7.32
2023-10-03T10:24:19.841Z,7.55
2023-10-03T10:26:48.940Z,8.00
2023-10-03T10:29:18.367Z,7.45
2023-10-03T10:31:46.078Z,8.05
2023-10-03T10:34:34.064Z,8.23
2023-10-03T10:37:02.936Z,7.90
2023-10-03T10:40:03.619Z,7.30
2023-10-03T10:42:30.903Z,7.07
2023-10-03T10:45:18.313Z,7.95
2023-10-03T10:47:46.956Z,10.85
2023-10-03T10:50:21.629Z,7.30
2023-10-03T10:52:50.710Z,7.63
2023-10-03T10:55:17.990Z,6.95
2023-10-03T10:57:45.200Z,7.55
2023-10-03T11:00:18.829Z,7.30
2023-10-03T11:02:46.173Z,7.30
2023-10-03T11:05:13.410Z,8.15
2023-10-03T11:07:47.129Z,7.55
2023-10-03T11:10:31.973Z,7.43
2023-10-03T11:13:01.574Z,6.60
2023-10-03T11:15:30.307Z,9.40
2023-10-03T11:17:57.616Z,7.60
2023-10-03T11:20:25.322Z,7.22
2023-10-03T11:22:52.546Z,12.25
2023-10-03T11:25:19.777Z,7.30
2023-10-03T11:27:47.149Z,7.25
2023-10-03T11:30:15.463Z,7.25
2023-10-03T11:32:44.525Z,7.40
2023-10-03T11:35:16.203Z,7.72
2023-10-03T11:37:45.079Z,7.03
2023-10-03T11:40:14.593Z,6.75
2023-10-03T11:42:46.319Z,6.47
2023-10-03T11:45:15.716Z,6.82
2023-10-03T11:47:44.412Z,7.70
2023-10-03T11:50:11.684Z,7.07
2023-10-03T11:52:38.915Z,6.93
2023-10-03T11:55:07.160Z,6.93
2023-10-03T11:57:34.427Z,6.93
2023-10-03T12:00:01.678Z,6.60
2023-10-03T12:02:28.948Z,7.10
2023-10-03T12:04:57.580Z,7.00
2023-10-03T12:07:24.770Z,7.05
2023-10-03T12:09:52.004Z,6.32
2023-10-03T12:12:19.205Z,6.50
2023-10-03T12:14:46.512Z,6.68
2023-10-03T12:17:13.779Z,6.82
2023-10-03T12:19:41.022Z,6.50
2023-10-03T12:22:09.600Z,7.15
2023-10-03T12:24:36.930Z,6.47
2023-10-03T12:27:04.218Z,7.18
2023-10-03T12:29:31.492Z,6.70
2023-10-03T12:31:58.718Z,6.60
2023-10-03T12:34:25.926Z,6.32
2023-10-03T12:36:53.133Z,6.25
2023-10-03T12:39:21.803Z,6.60
2023-10-03T12:41:49.069Z,6.32
2023-10-03T12:44:16.286Z,6.78
2023-10-03T12:46:43.619Z,5.78
2023-10-03T12:49:10.919Z,11.52
2023-10-03T12:51:38.168Z,7.20
2023-10-03T12:54:06.068Z,6.78
2023-10-03T12:56:34.953Z,6.88
2023-10-03T12:59:02.462Z,6.20
2023-10-03T13:01:29.928Z,7.07
2023-10-03T13:03:57.394Z,6.72
2023-10-03T13:06:24.715Z,5.70
2023-10-03T13:08:51.993Z,6.43
2023-10-03T13:11:19.268Z,7.10
2023-10-03T13:13:47.813Z,6.95
2023-10-03T13:16:15.071Z,7.63
2023-10-03T13:18:42.494Z,7.55
2023-10-03T13:21:09.903Z,7.20
2023-10-03T13:23:37.224Z,7.75
2023-10-03T13:26:04.590Z,6.47
2023-10-03T13:28:31.949Z,7.43
2023-10-03T13:31:00.605Z,7.10
2023-10-03T13:33:27.979Z,7.68
2023-10-03T13:35:55.294Z,7.82
2023-10-03T13:38:22.562Z,6.78
2023-10-03T13:40:49.761Z,7.03
2023-10-03T13:43:17.019Z,5.60
2023-10-03T13:45:44.638Z,6.70
2023-10-03T13:48:13.407Z,6.03
2023-10-03T13:50:40.699Z,5.88
2023-10-03T13:53:07.967Z,5.78
2023-10-03T13:55:35.268Z,5.82
2023-10-03T13:58:02.610Z,5.40
2023-10-03T14:00:30.062Z,4.40
2023-10-03T14:02:59.103Z,3.70
2023-10-03T14:05:27.916Z,4.15
2023-10-03T14:07:55.157Z,3.40
2023-10-03T14:10:22.411Z,3.67
2023-10-03T14:12:49.666Z,3.60
2023-10-03T14:15:16.994Z,3.83
2023-10-03T14:17:44.438Z,3.85
2023-10-03T14:20:12.215Z,3.08
2023-10-03T14:22:41.187Z,3.05
2023-10-03T14:25:09.162Z,3.65
2023-10-03T14:27:36.468Z,3.63
2023-10-03T14:30:04.517Z,3.83
2023-10-03T14:32:31.886Z,3.45
2023-10-03T14:34:59.403Z,3.28
2023-10-03T14:37:26.617Z,3.60
2023-10-03T14:39:55.310Z,6.10
2023-10-03T14:42:22.677Z,3.95
2023-10-03T14:44:49.962Z,2.10
2023-10-03T14:47:17.408Z,2.28
2023-10-03T14:49:45.046Z,2.33
2023-10-03T14:52:12.299Z,2.70
2023-10-03T14:54:39.585Z,3.20
2023-10-03T14:57:08.257Z,2.28
2023-10-03T14:59:35.675Z,2.33
2023-10-03T15:02:02.955Z,2.50
2023-10-03T15:04:30.297Z,2.00
2023-10-03T15:06:57.554Z,2.22
2023-10-03T15:09:24.819Z,1.70
2023-10-03T15:11:52.128Z,2.20
2023-10-03T15:14:20.758Z,2.20
2023-10-03T15:16:48.051Z,2.20
2023-10-03T15:19:15.321Z,2.20
2023-10-03T15:21:42.571Z,1.90
2023-10-03T15:24:11.465Z,2.20
2023-10-03T15:26:39.517Z,1.58
2023-10-03T15:29:06.937Z,2.00
2023-10-03T15:31:35.532Z,2.55
2023-10-03T15:34:03.336Z,2.10
2023-10-03T15:36:31.436Z,2.10
2023-10-03T15:38:58.856Z,1.70
2023-10-03T15:41:26.677Z,2.20
2023-10-03T15:43:53.949Z,2.20
2023-10-03T15:46:21.318Z,2.03
2023-10-03T15:48:50.212Z,2.17
2023-10-03T15:51:17.598Z,1.80
2023-10-03T15:53:46.710Z,2.20
2023-10-03T15:56:14.919Z,2.17
2023-10-03T15:58:42.192Z,2.50
2023-10-03T16:01:12.811Z,2.15
2023-10-03T16:03:40.244Z,2.03
2023-10-03T16:06:09.072Z,2.33
2023-10-03T16:08:36.586Z,1.98
2023-10-03T16:11:04.089Z,2.35
2023-10-03T16:13:31.586Z,2.17
2023-10-03T16:15:59.104Z,2.50
2023-10-03T16:18:26.538Z,2.13
2023-10-03T16:20:53.848Z,1.70
2023-10-03T16:23:22.541Z,2.00
2023-10-03T16:25:49.931Z,2.40
2023-10-03T16:28:17.293Z,2.38
2023-10-03T16:30:45.110Z,2.70
2023-10-03T16:33:12.575Z,4.85
2023-10-03T16:35:39.995Z,4.57
2023-10-03T16:38:07.382Z,4.43
2023-10-03T16:40:36.143Z,3.63
2023-10-03T16:43:03.731Z,2.50
2023-10-03T16:45:31.099Z,2.70
2023-10-03T16:47:58.546Z,2.47
2023-10-03T16:50:25.832Z,2.70
2023-10-03T16:52:53.226Z,2.60
2023-10-03T16:55:20.592Z,2.92
2023-10-03T16:57:49.182Z,2.50
2023-10-03T17:00:16.706Z,2.65
2023-10-03T17:02:44.738Z,2.72
2023-10-03T17:05:12.552Z,2.70
2023-10-03T17:07:41.070Z,2.88
2023-10-03T17:10:09.958Z,2.75
2023-10-03T17:12:37.738Z,22.15
2023-10-03T17:15:07.860Z,6.30
2023-10-03T17:17:35.142Z,3.10
2023-10-03T17:20:02.498Z,3.10
2023-10-03T17:22:29.807Z,3.05
2023-10-03T17:24:57.158Z,3.53
2023-10-03T17:27:24.416Z,2.85
2023-10-03T17:29:51.705Z,3.50
2023-10-03T17:32:20.335Z,3.22
2023-10-03T17:34:47.604Z,2.67
2023-10-03T17:37:14.851Z,3.40
2023-10-03T17:39:42.060Z,2.80
2023-10-03T17:42:09.344Z,2.90
2023-10-03T17:44:36.603Z,2.97
2023-10-03T17:47:03.981Z,3.42
2023-10-03T17:49:32.985Z,3.17
2023-10-03T17:52:00.195Z,3.00
2023-10-03T17:54:34.025Z,2.75
2023-10-03T17:57:03.332Z,3.10
2023-10-03T17:59:30.708Z,2.65
2023-10-03T18:01:57.912Z,3.67
2023-10-03T18:04:25.401Z,2.95
2023-10-03T18:06:54.094Z,3.40
2023-10-03T18:09:21.435Z,3.25
2023-10-03T18:11:48.926Z,3.35
2023-10-03T18:14:16.476Z,3.65
2023-10-03T18:16:43.692Z,3.25
2023-10-03T18:19:11.183Z,3.83
2023-10-03T18:21:38.686Z,3.85
2023-10-03T18:24:07.596Z,3.63
2023-10-03T18:26:34.857Z,4.30
2023-10-03T18:29:02.345Z,3.47
2023-10-03T18:31:29.877Z,3.63
2023-10-03T18:33:57.101Z,3.00
2023-10-03T18:36:24.584Z,2.38
2023-10-03T18:38:51.932Z,3.10
2023-10-03T18:41:20.587Z,2.85
2023-10-03T18:43:48.154Z,3.15
2023-10-03T18:46:15.463Z,3.22
2023-10-03T18:48:42.905Z,2.17
2023-10-03T18:51:10.325Z,2.15
2023-10-03T18:53:37.638Z,3.92
2023-10-03T18:56:09.093Z,2.72
2023-10-03T18:58:37.744Z,4.20
2023-10-03T19:01:14.368Z,2.65
2023-10-03T19:03:41.881Z,2.80
2023-10-03T19:06:09.469Z,2.80
2023-10-03T19:08:37.157Z,3.53
2023-10-03T19:11:04.456Z,2.78
2023-10-03T19:13:31.921Z,3.30
2023-10-03T19:16:01.553Z,2.60
2023-10-03T19:18:28.917Z,2.97
2023-10-03T19:40:39.860Z,3.17
2023-10-03T19:43:07.170Z,2.88
2023-10-03T19:45:37.414Z,3.30
2023-10-03T19:48:05.281Z,3.35
2023-10-03T19:50:32.703Z,2.72
2023-10-03T19:52:59.934Z,2.90
2023-10-03T19:55:27.270Z,2.78
2023-10-03T19:57:55.873Z,4.03
2023-10-03T20:00:23.464Z,3.33
2023-10-03T20:05:37.381Z,3.30
2023-10-03T20:08:05.009Z,3.30
2023-10-03T20:10:32.249Z,3.47
2023-10-03T20:12:59.472Z,3.30
2023-10-03T20:15:26.775Z,3.25
2023-10-03T20:17:54.203Z,3.97
2023-10-03T20:20:21.441Z,3.08
2023-10-03T20:22:50.040Z,3.50
2023-10-03T20:25:17.279Z,3.67
2023-10-03T20:27:44.519Z,3.42
2023-10-03T20:30:12.567Z,2.83
2023-10-03T20:32:40.726Z,4.07
2023-10-03T20:35:08.919Z,3.20
2023-10-03T20:37:36.191Z,3.13
2023-10-03T20:40:06.224Z,2.97
2023-10-03T20:42:33.527Z,3.20
2023-10-03T20:45:00.799Z,3.58
2023-10-03T20:47:28.023Z,3.00
2023-10-03T20:49:55.292Z,3.20
2023-10-03T20:52:22.550Z,2.60
2023-10-03T20:54:50.293Z,2.80
2023-10-03T20:57:18.967Z,3.08
2023-10-03T20:59:46.387Z,3.42
2023-10-03T21:02:13.609Z,2.50
2023-10-03T21:04:40.965Z,2.75
2023-10-03T21:07:08.214Z,3.00
2023-10-03T21:09:35.541Z,2.95
2023-10-03T21:12:03.662Z,3.30
2023-10-03T21:14:32.289Z,3.13
2023-10-03T21:16:59.707Z,2.95
2023-10-03T21:19:26.995Z,2.95
2023-10-03T21:21:54.375Z,2.40
2023-10-03T21:24:21.757Z,3.10
2023-10-03T21:26:49.565Z,2.47
2023-10-03T21:29:16.915Z,2.55
2023-10-03T21:31:45.634Z,2.60
2023-10-03T21:34:12.999Z,3.00
2023-10-03T21:36:40.335Z,2.90
2023-10-03T21:39:07.640Z,3.47
2023-10-03T21:41:34.983Z,3.03
2023-10-03T21:44:02.492Z,2.40
2023-10-03T21:46:29.772Z,2.75
2023-10-03T21:48:59.212Z,3.10
2023-10-03T21:51:26.480Z,3.15
2023-10-03T21:53:53.766Z,3.60
2023-10-03T21:56:21.062Z,2.70
2023-10-03T21:58:48.294Z,3.20
2023-10-03T22:01:15.549Z,3.15
2023-10-03T22:03:43.320Z,2.97
2023-10-03T22:06:12.083Z,3.13
2023-10-03T22:08:39.727Z,3.20
2023-10-03T22:11:06.989Z,3.30
2023-10-03T22:13:34.189Z,2.90
2023-10-03T22:16:01.478Z,2.33
2023-10-03T22:18:28.796Z,2.97
2023-10-03T22:20:56.177Z,3.60
2023-10-03T22:23:24.954Z,3.28
2023-10-03T22:25:52.179Z,4.82
2023-10-03T22:28:19.439Z,4.07
2023-10-03T22:30:47.573Z,3.88
2023-10-03T22:33:15.003Z,3.72
2023-10-03T22:35:42.407Z,4.57
2023-10-03T22:38:09.720Z,4.00
2023-10-03T22:40:38.676Z,3.22
2023-10-03T22:43:06.838Z,3.00
2023-10-03T22:45:34.491Z,3.72
2023-10-03T22:48:02.635Z,3.95
2023-10-03T22:50:30.703Z,3.42
2023-10-03T22:52:57.994Z,4.05
2023-10-03T22:55:25.252Z,3.42
2023-10-03T22:57:53.803Z,4.20
2023-10-03T23:00:21.056Z,3.47
2023-10-03T23:02:48.348Z,3.83
2023-10-03T23:05:15.747Z,3.67
2023-10-03T23:07:42.938Z,3.75
2023-10-03T23:10:10.808Z,3.22
2023-10-03T23:12:39.109Z,3.78
2023-10-03T23:15:09.586Z,4.20
2023-10-03T23:17:37.022Z,3.90
2023-10-03T23:20:04.840Z,4.10
2023-10-03T23:22:32.096Z,3.97
2023-10-03T23:24:59.355Z,4.63
2023-10-03T23:27:26.723Z,5.80
2023-10-03T23:29:54.195Z,4.72
2023-10-03T23:32:22.921Z,4.80
2023-10-03T23:34:50.252Z,5.35
2023-10-03T23:37:17.493Z,5.55
2023-10-03T23:39:44.854Z,5.07
2023-10-03T23:42:12.341Z,4.03
2023-10-03T23:44:39.674Z,4.30
2023-10-03T23:47:06.990Z,3.22
2023-10-03T23:49:35.675Z,3.50
2023-10-03T23:52:03.026Z,3.90
2023-10-03T23:54:30.245Z,9.43
2023-10-03T23:56:57.527Z,10.18
2023-10-03T23:59:24.791Z,11.80
